Time;durP1;ratioP1;P1;durP2;ratioP2;P2;SDS_P1;SDS_P2;PMS_P1;PMS_P2;Temp;Humidity;BMP_temperature;BMP_pressure;BME280_temperature;BME280_humidity;BME280_pressure;Samples;Min_cycle;Max_cycle;Signal;HPM_P1;HPM_P2
2023/03/21 00:01:56;;;;;;;3.08;1.45;;;;;;;;;;5044257;28;20045;-83
2023/03/21 00:04:23;;;;;;;3.50;1.45;;;;;;;;;;5033751;28;20029;-83
2023/03/21 00:06:50;;;;;;;3.50;2.17;;;;;;;;;;5044528;28;20045;-84
2023/03/21 00:09:15;;;;;;;2.42;1.77;;;;;;;;;;5036812;28;20103;-83
2023/03/21 00:11:41;;;;;;;4.47;2.33;;;;;;;;;;5038016;28;20075;-83
2023/03/21 00:14:07;;;;;;;2.72;1.75;;;;;;;;;;5042591;28;20029;-82
2023/03/21 00:16:34;;;;;;;2.80;1.70;;;;;;;;;;5037885;28;20036;-84
2023/03/21 00:19:02;;;;;;;4.63;1.63;;;;;;;;;;5038980;28;20196;-83
2023/03/21 00:21:31;;;;;;;2.55;1.80;;;;;;;;;;5038149;28;20033;-85
2023/03/21 00:23:56;;;;;;;2.38;2.05;;;;;;;;;;5040536;28;20099;-83
2023/03/21 00:26:22;;;;;;;3.63;2.35;;;;;;;;;;5043317;28;20113;-84
2023/03/21 00:28:47;;;;;;;2.38;1.27;;;;;;;;;;5037520;28;20044;-84
2023/03/21 00:31:13;;;;;;;2.03;1.40;;;;;;;;;;5041439;28;20118;-84
2023/03/21 00:33:39;;;;;;;2.20;1.20;;;;;;;;;;5055758;28;20094;-85
2023/03/21 00:36:06;;;;;;;1.80;1.38;;;;;;;;;;5033700;28;20025;-84
2023/03/21 00:38:33;;;;;;;1.58;1.05;;;;;;;;;;5038752;28;20029;-83
2023/03/21 00:40:58;;;;;;;1.23;1.00;;;;;;;;;;5037580;28;20033;-84
2023/03/21 00:43:28;;;;;;;3.78;1.90;;;;;;;;;;5035712;28;21915;-83
2023/03/21 00:45:55;;;;;;;2.20;1.48;;;;;;;;;;5046254;28;20083;-83
2023/03/21 00:48:21;;;;;;;6.28;1.38;;;;;;;;;;5040296;28;20060;-83
2023/03/21 00:50:46;;;;;;;2.05;1.60;;;;;;;;;;5046446;28;20432;-85
2023/03/21 00:53:14;;;;;;;1.40;1.00;;;;;;;;;;5041711;28;20021;-84
2023/03/21 00:55:40;;;;;;;2.67;1.20;;;;;;;;;;5041072;28;20013;-84
2023/03/21 00:58:06;;;;;;;2.53;1.45;;;;;;;;;;5039875;28;20092;-84
2023/03/21 01:00:32;;;;;;;1.98;1.58;;;;;;;;;;5047004;28;20409;-83
2023/03/21 01:03:04;;;;;;;3.08;1.92;;;;;;;;;;5049052;28;20094;-83
2023/03/21 01:08:17;;;;;;;2.58;1.48;;;;;;;;;;5047537;28;20070;-82
2023/03/21 01:10:45;;;;;;;2.35;1.58;;;;;;;;;;5042496;28;20029;-83
2023/03/21 01:13:12;;;;;;;2.55;1.42;;;;;;;;;;5046323;28;20469;-83
2023/03/21 01:15:47;;;;;;;2.35;1.30;;;;;;;;;;5047735;28;20489;-83
2023/03/21 01:18:15;;;;;;;1.95;1.08;;;;;;;;;;5040115;28;20029;-85
2023/03/21 01:20:42;;;;;;;1.77;1.17;;;;;;;;;;5040442;28;20500;-86
2023/03/21 01:23:10;;;;;;;2.33;1.40;;;;;;;;;;5041767;28;20028;-84
2023/03/21 01:25:36;;;;;;;0.98;0.93;;;;;;;;;;5043512;28;20035;-85
2023/03/21 01:28:01;;;;;;;2.80;1.80;;;;;;;;;;5044590;28;20032;-84
2023/03/21 01:30:27;;;;;;;2.22;1.38;;;;;;;;;;5043611;28;20043;-84
2023/03/21 01:32:52;;;;;;;1.38;1.05;;;;;;;;;;5046519;28;20060;-85
2023/03/21 01:35:18;;;;;;;2.63;1.40;;;;;;;;;;5040890;28;20025;-83
2023/03/21 01:37:43;;;;;;;2.13;1.40;;;;;;;;;;5042506;28;20037;-84
2023/03/21 01:40:29;;;;;;;2.00;1.30;;;;;;;;;;5042195;28;20028;-84
2023/03/21 01:42:55;;;;;;;1.77;1.17;;;;;;;;;;5042301;28;20524;-84
2023/03/21 01:45:58;;;;;;;2.25;0.75;;;;;;;;;;5043996;28;20052;-84
2023/03/21 01:48:26;;;;;;;3.45;1.25;;;;;;;;;;5038336;28;20025;-84
2023/03/21 01:50:51;;;;;;;1.45;1.23;;;;;;;;;;5043695;28;20053;-84
2023/03/21 01:53:20;;;;;;;7.18;1.52;;;;;;;;;;5046803;28;20060;-83
2023/03/21 01:55:48;;;;;;;2.65;1.60;;;;;;;;;;5044187;28;20474;-84
2023/03/21 01:58:17;;;;;;;2.78;1.25;;;;;;;;;;5041970;28;20030;-84
2023/03/21 02:00:48;;;;;;;2.40;1.38;;;;;;;;;;5039431;28;20025;-85
2023/03/21 02:03:15;;;;;;;1.17;1.08;;;;;;;;;;5041666;28;20025;-84
2023/03/21 02:06:01;;;;;;;4.35;1.58;;;;;;;;;;5040866;28;20520;-82
2023/03/21 02:08:29;;;;;;;2.05;1.42;;;;;;;;;;5044807;28;20021;-84
2023/03/21 02:10:54;;;;;;;1.63;1.10;;;;;;;;;;5038402;28;20025;-84
2023/03/21 02:13:20;;;;;;;1.75;1.30;;;;;;;;;;5039561;28;20030;-84
2023/03/21 02:15:58;;;;;;;3.03;1.98;;;;;;;;;;5034562;28;20021;-82
2023/03/21 02:18:41;;;;;;;2.30;1.48;;;;;;;;;;5043272;28;20448;-83
2023/03/21 02:21:44;;;;;;;1.73;1.30;;;;;;;;;;5038465;28;20055;-83
2023/03/21 02:24:28;;;;;;;3.55;2.03;;;;;;;;;;5035111;28;20035;-82
2023/03/21 02:27:02;;;;;;;1.98;1.10;;;;;;;;;;5038506;28;20112;-84
2023/03/21 02:29:54;;;;;;;1.75;0.95;;;;;;;;;;5042697;28;20028;-83
2023/03/21 02:32:46;;;;;;;2.20;1.38;;;;;;;;;;5042174;28;20021;-84
2023/03/21 02:35:32;;;;;;;3.50;1.73;;;;;;;;;;5040431;28;20056;-84
2023/03/21 02:38:09;;;;;;;3.60;2.03;;;;;;;;;;5035747;28;20535;-85
2023/03/21 02:40:41;;;;;;;0.77;0.77;;;;;;;;;;5043002;28;20075;-85
2023/03/21 02:43:16;;;;;;;1.42;1.33;;;;;;;;;;5043642;28;20111;-83
2023/03/21 02:45:50;;;;;;;2.58;1.20;;;;;;;;;;5029729;28;20144;-82
2023/03/21 02:48:23;;;;;;;1.42;0.85;;;;;;;;;;5037991;28;20021;-84
2023/03/21 02:50:54;;;;;;;1.45;1.27;;;;;;;;;;5041080;28;20037;-84
2023/03/21 02:53:23;;;;;;;1.85;1.00;;;;;;;;;;5045354;28;20029;-84
2023/03/21 02:55:51;;;;;;;3.28;1.33;;;;;;;;;;5037848;28;20025;-86
2023/03/21 02:58:20;;;;;;;3.50;1.98;;;;;;;;;;5046389;28;20040;-86
2023/03/21 03:00:47;;;;;;;6.78;2.38;;;;;;;;;;5041842;28;20033;-87
2023/03/21 03:03:13;;;;;;;7.68;1.98;;;;;;;;;;5039787;28;20032;-84
2023/03/21 03:05:50;;;;;;;6.75;1.50;;;;;;;;;;5029075;28;20030;-86
2023/03/21 03:08:38;;;;;;;1.40;1.02;;;;;;;;;;5043737;28;20026;-82
2023/03/21 03:11:22;;;;;;;3.33;1.33;;;;;;;;;;5042094;28;20594;-83
2023/03/21 03:14:01;;;;;;;3.58;1.75;;;;;;;;;;5034567;28;20029;-83
2023/03/21 03:16:29;;;;;;;1.20;1.05;;;;;;;;;;5039328;28;20037;-86
2023/03/21 03:18:59;;;;;;;2.25;1.52;;;;;;;;;;5038864;28;20448;-85
2023/03/21 03:21:40;;;;;;;1.30;1.20;;;;;;;;;;5038099;28;20536;-87
2023/03/21 03:24:23;;;;;;;3.90;2.20;;;;;;;;;;5037008;28;20033;-84
2023/03/21 03:27:05;;;;;;;1.65;1.30;;;;;;;;;;5045771;28;20485;-83
2023/03/21 03:29:33;;;;;;;4.03;2.00;;;;;;;;;;5037425;28;20025;-84
2023/03/21 03:32:00;;;;;;;3.60;1.52;;;;;;;;;;5039501;28;20043;-84
2023/03/21 03:34:33;;;;;;;3.17;1.92;;;;;;;;;;5041358;28;20440;-85
2023/03/21 03:37:03;;;;;;;6.75;1.38;;;;;;;;;;5045502;28;20119;-87
2023/03/21 03:40:04;;;;;;;4.07;1.88;;;;;;;;;;5042917;28;20058;-85
2023/03/21 03:42:41;;;;;;;4.20;1.95;;;;;;;;;;5036987;28;20120;-84
2023/03/21 03:45:08;;;;;;;3.47;1.65;;;;;;;;;;5041566;28;20091;-84
2023/03/21 03:47:40;;;;;;;3.60;2.22;;;;;;;;;;5042517;28;20039;-84
2023/03/21 03:50:33;;;;;;;9.18;2.95;;;;;;;;;;5037096;28;20485;-84
2023/03/21 03:53:05;;;;;;;3.47;1.63;;;;;;;;;;5035651;28;20056;-85
2023/03/21 03:55:33;;;;;;;2.13;1.92;;;;;;;;;;5038436;28;20535;-83
2023/03/21 03:58:00;;;;;;;3.25;1.60;;;;;;;;;;5035617;28;20025;-84
2023/03/21 04:00:26;;;;;;;2.03;1.40;;;;;;;;;;5040539;28;20048;-87
2023/03/21 04:02:53;;;;;;;4.03;2.08;;;;;;;;;;5042755;28;20037;-86
2023/03/21 04:05:20;;;;;;;9.55;2.22;;;;;;;;;;5042709;28;20029;-85
2023/03/21 04:07:49;;;;;;;4.05;1.90;;;;;;;;;;5041851;28;20104;-85
2023/03/21 04:10:15;;;;;;;4.82;2.40;;;;;;;;;;5042493;28;20024;-85
2023/03/21 04:12:41;;;;;;;5.90;3.28;;;;;;;;;;5037850;28;20029;-85
2023/03/21 04:15:07;;;;;;;2.60;1.67;;;;;;;;;;5035520;28;20022;-84
2023/03/21 04:17:33;;;;;;;1.75;1.65;;;;;;;;;;5040778;28;20025;-84
2023/03/21 04:19:58;;;;;;;2.67;1.30;;;;;;;;;;5038980;28;20040;-85
2023/03/21 04:22:24;;;;;;;3.10;1.52;;;;;;;;;;5039480;28;20032;-86
2023/03/21 04:24:50;;;;;;;4.45;2.45;;;;;;;;;;5054775;28;20025;-86
2023/03/21 04:27:16;;;;;;;2.80;1.55;;;;;;;;;;5042496;28;20029;-85
2023/03/21 04:29:41;;;;;;;1.80;1.40;;;;;;;;;;5042221;28;20055;-85
2023/03/21 04:32:18;;;;;;;1.75;1.50;;;;;;;;;;5037967;28;20056;-87
2023/03/21 04:34:48;;;;;;;2.03;1.27;;;;;;;;;;5033435;28;20056;-86
2023/03/21 04:37:18;;;;;;;1.77;1.25;;;;;;;;;;5036735;28;20032;-86
2023/03/21 04:39:45;;;;;;;2.55;1.73;;;;;;;;;;5042225;28;20036;-87
2023/03/21 04:42:13;;;;;;;2.15;1.20;;;;;;;;;;5035671;28;20036;-86
2023/03/21 04:44:39;;;;;;;1.83;1.52;;;;;;;;;;5041963;28;20366;-87
2023/03/21 04:47:04;;;;;;;1.88;1.48;;;;;;;;;;5038468;28;20064;-86
2023/03/21 04:49:30;;;;;;;3.75;1.88;;;;;;;;;;5043441;28;20025;-86
2023/03/21 04:51:55;;;;;;;1.92;1.05;;;;;;;;;;5039468;28;20025;-86
2023/03/21 04:54:21;;;;;;;2.47;1.65;;;;;;;;;;5053182;28;20116;-84
2023/03/21 04:56:46;;;;;;;0.98;0.82;;;;;;;;;;5043535;28;20109;-82
2023/03/21 04:59:14;;;;;;;3.40;1.52;;;;;;;;;;5041461;28;20029;-83
2023/03/21 05:01:42;;;;;;;2.00;0.93;;;;;;;;;;5040579;28;20455;-86
2023/03/21 05:04:08;;;;;;;1.98;1.17;;;;;;;;;;5038549;28;20056;-84
2023/03/21 05:06:33;;;;;;;4.32;1.27;;;;;;;;;;5042330;28;20134;-85
2023/03/21 05:09:04;;;;;;;1.75;1.25;;;;;;;;;;5037890;28;20029;-81
2023/03/21 05:11:30;;;;;;;1.00;0.93;;;;;;;;;;5033419;28;20494;-81
2023/03/21 05:13:57;;;;;;;2.67;1.27;;;;;;;;;;5031442;28;20033;-82
2023/03/21 05:16:29;;;;;;;2.45;1.05;;;;;;;;;;5041485;28;20024;-81
2023/03/21 05:19:02;;;;;;;4.28;1.17;;;;;;;;;;5037321;28;20053;-81
2023/03/21 05:21:32;;;;;;;1.55;1.05;;;;;;;;;;5040143;28;20025;-81
2023/03/21 05:24:02;;;;;;;2.03;1.55;;;;;;;;;;5043735;28;20029;-80
2023/03/21 05:26:28;;;;;;;1.60;1.50;;;;;;;;;;5039393;28;20148;-83
2023/03/21 05:28:53;;;;;;;7.43;2.95;;;;;;;;;;5034069;28;20064;-83
2023/03/21 05:31:19;;;;;;;5.35;1.75;;;;;;;;;;5034528;28;20029;-82
2023/03/21 05:33:45;;;;;;;2.33;1.35;;;;;;;;;;5042656;28;20036;-83
2023/03/21 05:36:11;;;;;;;1.20;1.00;;;;;;;;;;5044063;28;20087;-82
2023/03/21 05:38:37;;;;;;;3.58;1.63;;;;;;;;;;5044911;28;20029;-83
2023/03/21 05:41:02;;;;;;;4.50;1.30;;;;;;;;;;5041604;28;20036;-80
2023/03/21 05:43:28;;;;;;;1.73;1.23;;;;;;;;;;5036701;28;20032;-80
2023/03/21 05:45:53;;;;;;;6.40;0.90;;;;;;;;;;5039543;28;20460;-80
2023/03/21 05:48:19;;;;;;;2.95;1.75;;;;;;;;;;5035782;28;20517;-79
2023/03/21 05:50:44;;;;;;;4.60;2.50;;;;;;;;;;5039855;28;20032;-80
2023/03/21 05:53:10;;;;;;;3.95;2.70;;;;;;;;;;5036670;28;20405;-80
2023/03/21 05:55:36;;;;;;;7.13;3.25;;;;;;;;;;5037031;28;20064;-79
2023/03/21 05:58:01;;;;;;;3.58;2.17;;;;;;;;;;5042689;28;20032;-80
2023/03/21 06:00:27;;;;;;;1.27;1.17;;;;;;;;;;5036198;28;20033;-80
2023/03/21 06:02:52;;;;;;;2.05;1.45;;;;;;;;;;5038984;28;20040;-80
2023/03/21 06:05:18;;;;;;;1.98;1.27;;;;;;;;;;5035654;28;20104;-81
2023/03/21 06:07:43;;;;;;;4.32;1.35;;;;;;;;;;5040855;28;20040;-80
2023/03/21 06:10:12;;;;;;;3.60;1.85;;;;;;;;;;5038836;28;20031;-81
2023/03/21 06:12:38;;;;;;;9.20;1.60;;;;;;;;;;5040728;28;20526;-79
2023/03/21 06:15:05;;;;;;;3.80;2.17;;;;;;;;;;5033972;28;20029;-80
2023/03/21 06:17:31;;;;;;;6.88;2.28;;;;;;;;;;5036466;28;20060;-79
2023/03/21 06:19:59;;;;;;;4.18;1.50;;;;;;;;;;5044901;28;20032;-81
2023/03/21 06:22:25;;;;;;;2.22;1.52;;;;;;;;;;5035989;28;20071;-80
2023/03/21 06:24:51;;;;;;;1.55;1.30;;;;;;;;;;5038821;28;20029;-80
2023/03/21 06:27:17;;;;;;;1.95;1.25;;;;;;;;;;5046636;28;20043;-80
2023/03/21 06:29:42;;;;;;;2.78;1.88;;;;;;;;;;5038627;28;20028;-81
2023/03/21 06:32:07;;;;;;;3.25;1.65;;;;;;;;;;5038775;28;20049;-80
2023/03/21 06:34:33;;;;;;;2.97;2.05;;;;;;;;;;5039019;28;20047;-82
2023/03/21 06:36:58;;;;;;;4.93;2.78;;;;;;;;;;5043219;28;20029;-80
2023/03/21 06:39:24;;;;;;;3.72;2.63;;;;;;;;;;5036150;28;20374;-80
2023/03/21 06:41:50;;;;;;;3.40;2.10;;;;;;;;;;5039292;28;20025;-80
2023/03/21 06:44:15;;;;;;;2.63;1.70;;;;;;;;;;5036726;28;20029;-78
2023/03/21 06:46:41;;;;;;;5.50;2.60;;;;;;;;;;5029916;28;20029;-79
2023/03/21 06:49:06;;;;;;;5.90;3.20;;;;;;;;;;5041636;28;20128;-80
2023/03/21 06:51:32;;;;;;;4.13;3.15;;;;;;;;;;5041098;28;20105;-78
2023/03/21 06:53:57;;;;;;;3.65;2.75;;;;;;;;;;5037026;28;20022;-78
2023/03/21 06:56:23;;;;;;;4.00;2.60;;;;;;;;;;5037840;28;20104;-79
2023/03/21 06:58:48;;;;;;;3.10;2.50;;;;;;;;;;5039370;28;20025;-83
2023/03/21 07:01:14;;;;;;;3.03;2.35;;;;;;;;;;5031953;28;20050;-80
2023/03/21 07:03:39;;;;;;;4.78;2.90;;;;;;;;;;5035263;28;20037;-81
2023/03/21 07:06:10;;;;;;;4.57;2.28;;;;;;;;;;5037064;28;20029;-80
2023/03/21 07:08:37;;;;;;;9.55;5.45;;;;;;;;;;5034459;28;20392;-80
2023/03/21 07:11:03;;;;;;;8.75;6.07;;;;;;;;;;5032102;28;20037;-80
2023/03/21 07:13:28;;;;;;;12.27;7.07;;;;;;;;;;5033029;28;20429;-80
2023/03/21 07:15:54;;;;;;;4.75;3.53;;;;;;;;;;5040054;28;20029;-82
2023/03/21 07:18:19;;;;;;;7.80;3.83;;;;;;;;;;5034594;28;20037;-81
2023/03/21 07:20:49;;;;;;;8.55;3.47;;;;;;;;;;5033262;28;20029;-80
2023/03/21 07:23:19;;;;;;;6.65;3.67;;;;;;;;;;5033298;28;20029;-81
2023/03/21 07:25:46;;;;;;;6.55;3.35;;;;;;;;;;5034881;28;20378;-81
2023/03/21 07:28:12;;;;;;;6.55;3.97;;;;;;;;;;5034891;28;20469;-81
2023/03/21 07:30:37;;;;;;;11.02;3.13;;;;;;;;;;5033090;28;20030;-82
2023/03/21 07:33:03;;;;;;;6.07;4.20;;;;;;;;;;5036364;28;20036;-81
2023/03/21 07:35:29;;;;;;;11.90;4.63;;;;;;;;;;5036514;28;20100;-81
2023/03/21 07:37:54;;;;;;;7.05;3.70;;;;;;;;;;5039125;28;20029;-82
2023/03/21 07:40:20;;;;;;;10.35;3.80;;;;;;;;;;5035820;28;20029;-81
2023/03/21 07:42:47;;;;;;;8.23;5.10;;;;;;;;;;5040370;28;20112;-81
2023/03/21 07:45:16;;;;;;;11.45;3.70;;;;;;;;;;5038996;28;20033;-81
2023/03/21 07:47:42;;;;;;;9.17;4.20;;;;;;;;;;5040324;28;20021;-82
2023/03/21 07:50:08;;;;;;;5.40;4.00;;;;;;;;;;5035613;28;20040;-80
2023/03/21 07:52:33;;;;;;;6.15;4.45;;;;;;;;;;5037249;28;21259;-83
2023/03/21 07:54:59;;;;;;;8.25;3.53;;;;;;;;;;5059783;28;20028;-82
2023/03/21 07:57:24;;;;;;;8.27;4.28;;;;;;;;;;5045987;28;20029;-82
2023/03/21 07:59:50;;;;;;;7.13;3.97;;;;;;;;;;5032179;28;20029;-83
2023/03/21 08:02:16;;;;;;;9.00;3.58;;;;;;;;;;5035527;28;20536;-83
2023/03/21 08:04:43;;;;;;;6.72;3.85;;;;;;;;;;5033676;28;20386;-82
2023/03/21 08:07:09;;;;;;;5.78;3.30;;;;;;;;;;5034340;28;20025;-83
2023/03/21 08:09:35;;;;;;;10.82;4.00;;;;;;;;;;5037526;28;20404;-82
2023/03/21 08:12:01;;;;;;;6.03;3.50;;;;;;;;;;5034014;28;20040;-83
2023/03/21 08:14:27;;;;;;;8.27;3.53;;;;;;;;;;5032854;28;20496;-83
2023/03/21 08:16:52;;;;;;;5.57;3.38;;;;;;;;;;5037490;28;20500;-83
2023/03/21 08:19:20;;;;;;;6.93;3.25;;;;;;;;;;5034827;28;20385;-85
2023/03/21 08:21:48;;;;;;;4.32;2.95;;;;;;;;;;5041970;28;20021;-83
2023/03/21 08:24:14;;;;;;;7.90;3.65;;;;;;;;;;5039763;28;20097;-83
2023/03/21 08:26:40;;;;;;;6.57;3.95;;;;;;;;;;5038670;28;20133;-82
2023/03/21 08:29:06;;;;;;;7.72;4.07;;;;;;;;;;5055298;28;20504;-80
2023/03/21 08:31:31;;;;;;;7.00;3.60;;;;;;;;;;5041251;28;20041;-78
2023/03/21 08:33:57;;;;;;;7.10;3.38;;;;;;;;;;5041089;28;20036;-79
2023/03/21 08:36:23;;;;;;;12.70;3.97;;;;;;;;;;5033268;28;20488;-81
2023/03/21 08:38:53;;;;;;;4.30;2.95;;;;;;;;;;5039087;28;20408;-81
2023/03/21 08:41:20;;;;;;;6.43;3.55;;;;;;;;;;5038593;28;20027;-81
2023/03/21 08:43:47;;;;;;;6.15;4.00;;;;;;;;;;5041944;28;20032;-80
2023/03/21 08:46:12;;;;;;;8.75;4.15;;;;;;;;;;5033265;28;20049;-80
2023/03/21 08:48:38;;;;;;;11.80;3.50;;;;;;;;;;5034848;28;20049;-80
2023/03/21 08:51:04;;;;;;;5.80;3.33;;;;;;;;;;5033694;28;20033;-82
2023/03/21 08:53:30;;;;;;;3.53;2.53;;;;;;;;;;5039820;28;20062;-81
2023/03/21 08:55:56;;;;;;;4.78;2.40;;;;;;;;;;5038835;28;20512;-79
2023/03/21 08:58:21;;;;;;;5.93;3.92;;;;;;;;;;5040385;28;20387;-79
2023/03/21 09:00:47;;;;;;;9.75;3.35;;;;;;;;;;5035968;28;20473;-78
2023/03/21 09:03:12;;;;;;;6.32;2.53;;;;;;;;;;5036835;28;20029;-78
2023/03/21 09:05:38;;;;;;;4.78;2.58;;;;;;;;;;5034476;28;20037;-79
2023/03/21 09:08:04;;;;;;;4.82;2.50;;;;;;;;;;5034985;28;20552;-79
2023/03/21 09:10:30;;;;;;;6.90;3.10;;;;;;;;;;5038134;28;20079;-78
2023/03/21 09:12:55;;;;;;;10.60;3.42;;;;;;;;;;5042504;28;20025;-79
2023/03/21 09:15:27;;;;;;;3.67;2.85;;;;;;;;;;5038555;28;20033;-78
2023/03/21 09:17:55;;;;;;;5.47;3.40;;;;;;;;;;5038520;28;20033;-78
2023/03/21 09:20:32;;;;;;;6.25;3.67;;;;;;;;;;5040454;28;20027;-79
2023/03/21 09:23:00;;;;;;;8.25;2.88;;;;;;;;;;5033893;28;20040;-79
2023/03/21 09:25:29;;;;;;;4.63;3.10;;;;;;;;;;5032122;28;20477;-78
2023/03/21 09:27:56;;;;;;;8.80;3.60;;;;;;;;;;5034062;28;20025;-80
2023/03/21 09:30:21;;;;;;;4.30;2.55;;;;;;;;;;5037352;28;20029;-79
2023/03/21 09:32:49;;;;;;;5.13;2.85;;;;;;;;;;5035977;28;20035;-79
2023/03/21 09:35:17;;;;;;;5.70;2.90;;;;;;;;;;5034248;28;20086;-80
2023/03/21 09:37:43;;;;;;;3.70;2.75;;;;;;;;;;5036857;28;20025;-79
2023/03/21 09:40:28;;;;;;;6.43;3.33;;;;;;;;;;5035555;28;20057;-79
2023/03/21 09:43:03;;;;;;;4.00;2.67;;;;;;;;;;5038509;28;20078;-80
2023/03/21 09:46:01;;;;;;;6.47;3.10;;;;;;;;;;5043839;28;20032;-81
2023/03/21 09:48:53;;;;;;;6.18;2.90;;;;;;;;;;5034011;28;20035;-81
2023/03/21 09:51:20;;;;;;;4.95;3.47;;;;;;;;;;5033037;28;20100;-79
2023/03/21 09:53:48;;;;;;;4.78;2.92;;;;;;;;;;5035909;28;20020;-81
2023/03/21 09:56:16;;;;;;;8.68;3.42;;;;;;;;;;5041778;28;20416;-81
2023/03/21 09:58:51;;;;;;;3.63;2.78;;;;;;;;;;5042885;28;20031;-80
2023/03/21 10:01:32;;;;;;;4.68;2.92;;;;;;;;;;5030942;28;20072;-80
2023/03/21 10:04:02;;;;;;;4.65;3.03;;;;;;;;;;5038539;28;20121;-79
2023/03/21 10:06:29;;;;;;;4.30;3.35;;;;;;;;;;5034589;28;20036;-80
2023/03/21 10:09:11;;;;;;;4.38;2.83;;;;;;;;;;5035635;28;20099;-82
2023/03/21 10:11:51;;;;;;;3.83;2.35;;;;;;;;;;5034652;28;20029;-81
2023/03/21 10:14:31;;;;;;;5.82;2.88;;;;;;;;;;5039181;28;20032;-80
2023/03/21 10:17:09;;;;;;;9.07;2.75;;;;;;;;;;5032605;28;20033;-81
2023/03/21 10:19:35;;;;;;;3.78;2.63;;;;;;;;;;5036353;28;20152;-84
2023/03/21 10:22:00;;;;;;;5.15;2.60;;;;;;;;;;5036359;28;20123;-80
2023/03/21 10:24:28;;;;;;;4.45;2.22;;;;;;;;;;5036378;28;20422;-81
2023/03/21 10:26:54;;;;;;;5.15;2.97;;;;;;;;;;5044146;28;20503;-80
2023/03/21 10:29:27;;;;;;;4.50;2.35;;;;;;;;;;5039176;28;20033;-82
2023/03/21 10:31:54;;;;;;;4.10;2.40;;;;;;;;;;5035004;28;20510;-81
2023/03/21 10:34:29;;;;;;;6.53;2.70;;;;;;;;;;5044466;28;20098;-81
2023/03/21 10:36:55;;;;;;;4.47;2.10;;;;;;;;;;5035517;28;20378;-81
2023/03/21 10:39:27;;;;;;;4.53;2.90;;;;;;;;;;5038079;28;20026;-81
2023/03/21 10:41:53;;;;;;;3.70;2.35;;;;;;;;;;5044336;28;20029;-82
2023/03/21 10:44:19;;;;;;;5.05;3.33;;;;;;;;;;5047347;28;20117;-81
2023/03/21 10:47:06;;;;;;;3.80;2.42;;;;;;;;;;5041176;28;20026;-81
2023/03/21 10:49:31;;;;;;;5.93;3.17;;;;;;;;;;5039425;28;20128;-80
2023/03/21 10:52:00;;;;;;;4.57;3.17;;;;;;;;;;5039732;28;20521;-82
2023/03/21 10:54:29;;;;;;;6.28;2.80;;;;;;;;;;5043211;28;20142;-81
2023/03/21 10:57:25;;;;;;;3.65;2.38;;;;;;;;;;5036200;28;20028;-82
2023/03/21 11:00:06;;;;;;;4.13;2.17;;;;;;;;;;5051756;28;20128;-81
2023/03/21 11:02:34;;;;;;;4.18;3.22;;;;;;;;;;5033017;28;20095;-79
2023/03/21 11:05:21;;;;;;;4.57;2.53;;;;;;;;;;5030671;28;20028;-80
2023/03/21 11:07:55;;;;;;;5.10;2.85;;;;;;;;;;5038619;28;21699;-80
2023/03/21 11:10:34;;;;;;;3.63;2.40;;;;;;;;;;5035378;28;20032;-81
2023/03/21 11:13:16;;;;;;;4.93;2.90;;;;;;;;;;5032083;28;20485;-81
2023/03/21 11:15:57;;;;;;;6.75;2.53;;;;;;;;;;5042475;28;20117;-81
2023/03/21 11:18:29;;;;;;;4.47;2.95;;;;;;;;;;5041303;28;20035;-80
2023/03/21 11:21:01;;;;;;;8.48;3.75;;;;;;;;;;5039055;28;20176;-80
2023/03/21 11:23:30;;;;;;;4.63;2.90;;;;;;;;;;5031389;28;20036;-79
2023/03/21 11:25:59;;;;;;;6.53;3.05;;;;;;;;;;5033874;28;20424;-80
2023/03/21 11:28:32;;;;;;;6.43;3.38;;;;;;;;;;5042578;28;20031;-79
2023/03/21 11:31:00;;;;;;;3.65;3.00;;;;;;;;;;5036318;28;20450;-80
2023/03/21 11:33:31;;;;;;;5.85;3.30;;;;;;;;;;5037074;28;20477;-80
2023/03/21 11:36:15;;;;;;;5.40;3.58;;;;;;;;;;5034199;28;20028;-80
2023/03/21 11:38:40;;;;;;;6.55;4.18;;;;;;;;;;5032178;28;20056;-80
2023/03/21 11:41:06;;;;;;;7.22;4.05;;;;;;;;;;5037142;28;20037;-79
2023/03/21 11:43:36;;;;;;;9.85;4.47;;;;;;;;;;5040419;28;20388;-80
2023/03/21 11:46:05;;;;;;;9.02;4.07;;;;;;;;;;5036200;28;20051;-79
2023/03/21 11:48:43;;;;;;;9.57;4.65;;;;;;;;;;5039414;28;20043;-81
2023/03/21 11:51:18;;;;;;;7.93;3.92;;;;;;;;;;5058058;28;20029;-80
2023/03/21 11:54:13;;;;;;;7.85;4.03;;;;;;;;;;5042239;28;20078;-79
2023/03/21 11:56:46;;;;;;;5.20;3.33;;;;;;;;;;5037813;28;20480;-80
2023/03/21 11:59:30;;;;;;;7.45;3.53;;;;;;;;;;5044830;28;20088;-79
2023/03/21 12:02:36;;;;;;;6.60;3.58;;;;;;;;;;5044321;28;20050;-79
2023/03/21 12:05:20;;;;;;;7.63;4.53;;;;;;;;;;5036531;28;20036;-79
2023/03/21 12:08:21;;;;;;;4.93;2.65;;;;;;;;;;5044837;28;20025;-79
2023/03/21 12:10:59;;;;;;;7.03;2.22;;;;;;;;;;5041584;28;20091;-79
2023/03/21 12:13:40;;;;;;;6.40;2.85;;;;;;;;;;5043004;28;20111;-79
2023/03/21 12:16:23;;;;;;;5.22;2.60;;;;;;;;;;5043037;28;20086;-79
2023/03/21 12:18:57;;;;;;;8.27;2.60;;;;;;;;;;5037947;28;20031;-80
2023/03/21 12:21:36;;;;;;;5.28;2.95;;;;;;;;;;5037858;28;20037;-79
2023/03/21 12:24:20;;;;;;;5.50;2.85;;;;;;;;;;5036858;28;20049;-79
2023/03/21 12:26:52;;;;;;;4.57;2.28;;;;;;;;;;5043979;28;20036;-80
2023/03/21 12:29:59;;;;;;;5.90;2.75;;;;;;;;;;5044959;28;20037;-79
2023/03/21 12:32:43;;;;;;;2.75;1.70;;;;;;;;;;5036757;28;20033;-79
2023/03/21 12:35:43;;;;;;;2.92;1.85;;;;;;;;;;5041662;28;20138;-79
2023/03/21 12:38:38;;;;;;;2.55;1.98;;;;;;;;;;5035860;28;20116;-79
2023/03/21 12:41:19;;;;;;;4.05;2.13;;;;;;;;;;5043572;28;20030;-79
2023/03/21 12:44:00;;;;;;;2.70;1.75;;;;;;;;;;5036400;28;20037;-79
2023/03/21 12:46:38;;;;;;;4.10;2.50;;;;;;;;;;5034313;28;20033;-80
2023/03/21 12:49:09;;;;;;;4.07;1.80;;;;;;;;;;5042222;28;20098;-79
2023/03/21 12:51:47;;;;;;;6.30;2.17;;;;;;;;;;5079373;28;20110;-79
2023/03/21 12:54:25;;;;;;;5.57;2.50;;;;;;;;;;5043916;28;20166;-79
2023/03/21 12:56:57;;;;;;;2.85;1.73;;;;;;;;;;5037138;28;20036;-79
2023/03/21 12:59:43;;;;;;;3.55;1.65;;;;;;;;;;5037352;28;20029;-80
2023/03/21 13:02:28;;;;;;;3.65;2.47;;;;;;;;;;5044011;28;20512;-80
2023/03/21 13:05:03;;;;;;;3.90;2.35;;;;;;;;;;5040543;28;20040;-78
2023/03/21 13:07:33;;;;;;;5.32;2.78;;;;;;;;;;5041362;28;20075;-79
2023/03/21 13:10:00;;;;;;;3.13;1.80;;;;;;;;;;5040397;28;20033;-78
2023/03/21 13:12:57;;;;;;;3.28;2.08;;;;;;;;;;5034922;28;20021;-79
2023/03/21 13:15:39;;;;;;;2.90;1.90;;;;;;;;;;5036278;28;20085;-79
2023/03/21 13:18:33;;;;;;;4.35;2.65;;;;;;;;;;5039834;28;20029;-79
2023/03/21 13:21:10;;;;;;;4.13;1.98;;;;;;;;;;5042399;28;20029;-79
2023/03/21 13:23:37;;;;;;;4.68;2.70;;;;;;;;;;5038759;28;20112;-79
2023/03/21 13:26:08;;;;;;;3.90;2.38;;;;;;;;;;5042046;28;20029;-79
2023/03/21 13:28:35;;;;;;;3.70;2.30;;;;;;;;;;5040943;28;20032;-79
2023/03/21 13:31:25;;;;;;;2.70;1.83;;;;;;;;;;5036884;28;20033;-79
2023/03/21 13:33:53;;;;;;;2.97;2.05;;;;;;;;;;5049223;28;20097;-79
2023/03/21 13:36:25;;;;;;;3.67;1.67;;;;;;;;;;5034427;28;20044;-79
2023/03/21 13:38:54;;;;;;;4.40;1.67;;;;;;;;;;5034150;28;20029;-80
2023/03/21 13:41:33;;;;;;;15.48;6.53;;;;;;;;;;5037987;28;20048;-80
2023/03/21 13:44:01;;;;;;;9.70;4.73;;;;;;;;;;5036107;28;20449;-81
2023/03/21 13:46:26;;;;;;;4.70;3.13;;;;;;;;;;5041610;28;20313;-86
2023/03/21 13:48:52;;;;;;;3.80;2.10;;;;;;;;;;5036120;28;20037;-84
2023/03/21 13:51:29;;;;;;;3.75;1.90;;;;;;;;;;5039534;28;20385;-82
2023/03/21 13:54:07;;;;;;;6.95;2.42;;;;;;;;;;5049119;28;20110;-82
2023/03/21 13:56:51;;;;;;;3.78;2.35;;;;;;;;;;5051139;28;20469;-81
2023/03/21 13:59:17;;;;;;;3.42;1.92;;;;;;;;;;5040866;28;20119;-82
2023/03/21 14:02:02;;;;;;;3.58;1.90;;;;;;;;;;5042214;28;20041;-83
2023/03/21 14:04:31;;;;;;;2.25;1.42;;;;;;;;;;5040721;28;20116;-82
2023/03/21 14:07:11;;;;;;;3.15;1.75;;;;;;;;;;5043521;28;20029;-82
2023/03/21 14:09:46;;;;;;;3.30;1.88;;;;;;;;;;5039271;28;20031;-80
2023/03/21 14:12:17;;;;;;;6.47;2.47;;;;;;;;;;5041432;28;20025;-84
2023/03/21 14:14:48;;;;;;;4.85;2.40;;;;;;;;;;5039127;28;20031;-83
2023/03/21 14:17:20;;;;;;;2.92;2.03;;;;;;;;;;5041071;28;20104;-82
2023/03/21 14:19:50;;;;;;;3.67;2.08;;;;;;;;;;5040552;28;20381;-81
2023/03/21 14:22:15;;;;;;;3.75;2.30;;;;;;;;;;5042049;28;20394;-82
2023/03/21 14:24:47;;;;;;;4.07;2.30;;;;;;;;;;5040670;28;20078;-81
2023/03/21 14:27:12;;;;;;;5.65;2.58;;;;;;;;;;5033746;28;20038;-79
2023/03/21 14:29:38;;;;;;;3.03;1.95;;;;;;;;;;5044494;28;20473;-79
2023/03/21 14:32:04;;;;;;;3.88;1.88;;;;;;;;;;5040304;28;20812;-79
2023/03/21 14:34:33;;;;;;;3.63;2.17;;;;;;;;;;5037132;28;20113;-80
2023/03/21 14:36:59;;;;;;;3.63;2.47;;;;;;;;;;5040210;28;20037;-79
2023/03/21 14:39:30;;;;;;;3.13;2.10;;;;;;;;;;5044146;28;20270;-83
2023/03/21 14:42:01;;;;;;;3.58;2.28;;;;;;;;;;5037236;28;20038;-80
2023/03/21 14:44:38;;;;;;;3.15;1.63;;;;;;;;;;5043554;28;20029;-78
2023/03/21 14:47:04;;;;;;;3.47;2.33;;;;;;;;;;5032676;28;20090;-80
2023/03/21 14:49:32;;;;;;;3.67;2.22;;;;;;;;;;5037371;28;20482;-78
2023/03/21 14:52:00;;;;;;;4.80;2.30;;;;;;;;;;5038537;28;20123;-79
2023/03/21 14:54:27;;;;;;;5.00;3.00;;;;;;;;;;5042166;28;20017;-80
2023/03/21 14:56:59;;;;;;;4.50;3.15;;;;;;;;;;5041497;28;20025;-79
2023/03/21 14:59:30;;;;;;;7.70;3.35;;;;;;;;;;5039165;28;20084;-79
2023/03/21 15:01:57;;;;;;;12.25;5.50;;;;;;;;;;5035497;28;20053;-79
2023/03/21 15:04:25;;;;;;;7.03;3.92;;;;;;;;;;5035115;28;20037;-79
2023/03/21 15:07:00;;;;;;;5.78;3.15;;;;;;;;;;5038966;28;20021;-79
2023/03/21 15:09:28;;;;;;;6.10;3.10;;;;;;;;;;5052672;28;20034;-79